Am Buchanan — V7AT9 — position and weather

sailwx.info

Track history (hours):
 
Tides and Currents Weather Stations Pressure Air Temp Water Temp Dewpoint Dewpoint Depression Visibility Wind Speed Wind Dir Waves Ship Positions

Am Buchanan

Last reported at 2018-Apr-15 11:21 UTC. Time now 2018-Jun-18 13:44 UTC.
Position N 38°09' W 010°16'.
Warning: this ship's position is months out of date.

Length 229 m; draft 9.2 m.

Type: Cargo ship. MMSI: 538005066.

Date/timePositionNaut miles runAvg speedWind from/ knotsBaromVisibWave heightAir tempDewpointWater temp
2018-Apr-15 11:21N 38°09' W 010°16'512.3
2018-Apr-15 10:59N 38°11' W 010°11'812.5
2018-Apr-15 10:21N 38°17' W 010°04'412.4
2018-Apr-15 10:00N 38°19' W 009°60'612.2
2018-Apr-15 09:30N 38°21' W 009°52'612.2
2018-Apr-15 09:00N 38°23' W 009°45'612.5
2018-Apr-15 08:30N 38°27' W 009°39'612.3
2018-Apr-15 08:00N 38°31' W 009°33'612.2
2018-Apr-15 07:30N 38°35' W 009°27'510.5
2018-Apr-15 07:00N 38°40' W 009°24'3 6.1
2018-Apr-15 06:30N 38°37' W 009°24'714.0
2018-Apr-15 06:00N 38°41' W 009°17'4 8.7
2018-Apr-15 05:30N 38°41' W 009°11'0 0.2
2018-Apr-15 05:00N 38°41' W 009°11'0 0.1
2018-Apr-15 04:30N 38°41' W 009°11'0 0.1
2018-Apr-15 03:51N 38°41' W 009°11'0 0.6
2018-Apr-15 03:24N 38°41' W 009°11'0 0.2
2018-Apr-15 03:00N 38°41' W 009°11'0 0.0
2018-Apr-15 02:30N 38°41' W 009°11'0 0.1
2018-Apr-15 01:54N 38°41' W 009°11'0 0.0
2018-Apr-15 01:27N 38°41' W 009°11'0 0.1
2018-Apr-15 00:54N 38°41' W 009°11'0 0.0
2018-Apr-15 00:30N 38°41' W 009°11'0 0.1
2018-Apr-14 23:48N 38°41' W 009°11'0 0.2
2018-Apr-14 23:21N 38°41' W 009°11'0 0.0
2018-Apr-14 22:54N 38°41' W 009°11'0 0.1
2018-Apr-14 22:21N 38°41' W 009°11'0 0.5
2018-Apr-14 22:00N 38°41' W 009°11'0 0.1
2018-Apr-14 21:30N 38°41' W 009°11'0 0.0
2018-Apr-14 20:54N 38°41' W 009°11'0 0.2
2018-Apr-14 20:30N 38°41' W 009°11'0 0.1
2018-Apr-14 19:51N 38°41' W 009°11'0 0.2
2018-Apr-14 19:30N 38°41' W 009°11'3 6.4
2018-Apr-14 19:00N 38°41' W 009°15'4 8.8
2018-Apr-14 18:30N 38°39' W 009°20'4 7.5
2018-Apr-14 18:00N 38°39' W 009°25'2 4.3
2018-Apr-14 17:30N 38°38' W 009°28'4 8.0
2018-Apr-14 17:00N 38°35' W 009°32'4 8.5
2018-Apr-14 16:30N 38°33' W 009°36'4 8.5
2018-Apr-14 16:00N 38°31' W 009°41'4 8.8
2018-Apr-14 15:31N 38°30' W 009°46'4 8.2
2018-Apr-14 15:00N 38°29' W 009°51'4 8.1
2018-Apr-14 14:30N 38°31' W 009°56'4 7.9
2018-Apr-14 14:00N 38°32' W 010°01'2 4.9
2018-Apr-14 13:30N 38°34' W 010°03'5 9.7
2018-Apr-14 12:57N 38°39' W 010°04'511.3
2018-Apr-14 12:30N 38°44' W 010°05'611.2
2018-Apr-14 11:58N 38°51' W 010°06'510.8
2018-Apr-14 11:30N 38°55' W 010°06'611.7
2018-Apr-14 11:00N 39°01' W 010°07'612.0
2018-Apr-14 10:30N 39°07' W 010°08'611.4
2018-Apr-14 10:00N 39°13' W 010°08'337 8.4
2018-Apr-12 17:57N 43°43' W 005°40'611.3
2018-Apr-12 17:27N 43°37' W 005°38'4 8.8
2018-Apr-12 17:00N 43°34' W 005°40'1 0.1
2018-Apr-12 10:32N 43°34' W 005°41'0 0.0
2018-Apr-12 10:20N 43°34' W 005°41'0 0.0
2018-Apr-12 08:38N 43°34' W 005°41'0 0.0
2018-Apr-12 07:44N 43°34' W 005°41'0 0.0
2018-Apr-12 07:20N 43°34' W 005°41'0 0.0
2018-Apr-12 06:50N 43°34' W 005°41'0 0.0
2018-Apr-12 06:26N 43°34' W 005°41'0 0.0
2018-Apr-12 05:56N 43°34' W 005°41'0 0.0
2018-Apr-12 05:26N 43°34' W 005°41'0 0.0
2018-Apr-12 04:56N 43°34' W 005°41'0 0.0
2018-Apr-12 04:26N 43°34' W 005°41'0 0.0
2018-Apr-12 03:56N 43°34' W 005°41'0 0.0
2018-Apr-12 03:26N 43°34' W 005°41'0 0.0
2018-Apr-12 02:56N 43°34' W 005°41'0 0.0
2018-Apr-12 02:26N 43°34' W 005°41'0 0.0
2018-Apr-12 01:56N 43°34' W 005°41'0 0.0
2018-Apr-12 01:26N 43°34' W 005°41'0 0.0
2018-Apr-12 00:56N 43°34' W 005°41'0 0.0
2018-Apr-12 00:26N 43°34' W 005°41'0 0.0
2018-Apr-11 23:56N 43°34' W 005°41'0 0.0
2018-Apr-11 23:26N 43°34' W 005°41'0 0.0
2018-Apr-11 22:50N 43°34' W 005°41'0 0.0
2018-Apr-11 22:26N 43°34' W 005°41'0 0.0
2018-Apr-11 21:38N 43°34' W 005°41'0 0.0
2018-Apr-11 21:26N 43°34' W 005°41'0 0.0
2018-Apr-11 19:50N 43°34' W 005°41'0 0.0
2018-Apr-11 19:26N 43°34' W 005°41'0 0.0
2018-Apr-11 18:44N 43°34' W 005°41'0 0.0
2018-Apr-11 18:26N 43°34' W 005°41'0 0.0
2018-Apr-11 17:50N 43°34' W 005°41'0 0.0
2018-Apr-11 17:26N 43°34' W 005°41'0 0.0
2018-Apr-11 16:56N 43°34' W 005°41'0 0.0
2018-Apr-11 16:26N 43°34' W 005°41'0 0.0
2018-Apr-11 15:56N 43°34' W 005°41'0 0.0
2018-Apr-11 14:44N 43°34' W 005°41'0 0.0
2018-Apr-11 14:20N 43°34' W 005°41'0 0.0
2018-Apr-11 12:20N 43°34' W 005°41'0 0.0
2018-Apr-11 11:56N 43°34' W 005°41'0 0.0
2018-Apr-11 11:26N 43°34' W 005°41'0 0.0
2018-Apr-11 10:56N 43°34' W 005°41'0 0.0
2018-Apr-11 10:26N 43°34' W 005°41'0 0.0
2018-Apr-11 09:50N 43°34' W 005°41'0 0.0
2018-Apr-11 09:14N 43°34' W 005°41'0 0.0
2018-Apr-11 08:50N 43°34' W 005°41'0 0.0
2018-Apr-11 08:20N 43°34' W 005°41'0 0.0
2018-Apr-11 07:56N 43°34' W 005°41'0 0.0
2018-Apr-11 07:20N 43°34' W 005°41'0 0.0
2018-Apr-11 06:44N 43°34' W 005°41'0 0.0
2018-Apr-11 06:26N 43°34' W 005°41'0 0.0
2018-Apr-11 05:56N 43°34' W 005°41'0 0.0
2018-Apr-11 05:20N 43°34' W 005°41'0 0.0
2018-Apr-11 04:50N 43°34' W 005°41'0 0.0
2018-Apr-11 04:26N 43°34' W 005°41'0 0.0
2018-Apr-11 03:56N 43°34' W 005°41'0 0.0
2018-Apr-11 03:20N 43°34' W 005°41'0 0.0
2018-Apr-11 02:50N 43°34' W 005°41'0 0.0
2018-Apr-11 02:26N 43°34' W 005°41'0 0.0
2018-Apr-11 01:56N 43°34' W 005°41'0 0.0
2018-Apr-11 01:26N 43°34' W 005°41'0 0.0
2018-Apr-11 00:56N 43°34' W 005°41'0 0.0
2018-Apr-11 00:26N 43°34' W 005°41'0 0.0
2018-Apr-10 17:26N 43°34' W 005°41'0 0.0
2018-Apr-10 16:56N 43°34' W 005°41'0 0.0
2018-Apr-10 12:44N 43°34' W 005°41'0 0.0
2018-Apr-10 07:38N 43°34' W 005°41'0 0.0
2018-Apr-10 07:20N 43°34' W 005°41'0 0.0
2018-Apr-10 06:56N 43°34' W 005°41'0 0.0
2018-Apr-10 06:26N 43°34' W 005°41'0 0.0
2018-Apr-10 05:56N 43°34' W 005°41'0 0.0
2018-Apr-10 05:20N 43°34' W 005°41'0 0.0
2018-Apr-10 04:56N 43°34' W 005°41'0 0.0
2018-Apr-10 04:26N 43°34' W 005°41'0 0.0
2018-Apr-10 03:44N 43°34' W 005°41'0 0.0
2018-Apr-10 03:26N 43°34' W 005°41'0 0.0
2018-Apr-10 02:50N 43°34' W 005°41'0 0.0
2018-Apr-10 02:26N 43°34' W 005°41'0 0.0
2018-Apr-10 01:56N 43°34' W 005°41'0 0.0
2018-Apr-10 01:26N 43°34' W 005°41'0 0.0
2018-Apr-10 00:56N 43°34' W 005°41'0 0.0
2018-Apr-10 00:26N 43°34' W 005°41'0 0.0
2018-Apr-09 23:56N 43°34' W 005°41'0 0.0
2018-Apr-09 19:20N 43°34' W 005°41'0 0.0
2018-Apr-09 18:56N 43°34' W 005°41'0 0.0
2018-Apr-09 18:26N 43°34' W 005°41'0 0.0
2018-Apr-09 17:56N 43°34' W 005°41'0 0.0
2018-Apr-09 17:20N 43°34' W 005°41'0 0.0
2018-Apr-09 16:56N 43°34' W 005°41'0 0.0
2018-Apr-09 13:02N 43°34' W 005°41'0 0.0
2018-Apr-09 12:50N 43°34' W 005°41'0 0.0
2018-Apr-09 12:14N 43°34' W 005°41'0 0.0
2018-Apr-09 11:55N 43°34' W 005°41'0 0.0
2018-Apr-09 11:20N 43°34' W 005°41'0 0.0
2018-Apr-09 10:50N 43°34' W 005°41'0 0.0
2018-Apr-09 10:14N 43°34' W 005°41'0 0.0
2018-Apr-09 09:56N 43°34' W 005°41'0 0.0
2018-Apr-09 09:20N 43°34' W 005°41'0 0.0
2018-Apr-09 08:56N 43°34' W 005°41'0 0.0
2018-Apr-09 08:01N 43°34' W 005°41'0 0.0
2018-Apr-09 06:50N 43°34' W 005°41'0 0.0
2018-Apr-09 06:25N 43°34' W 005°41'0 0.0
2018-Apr-09 05:55N 43°34' W 005°41'0 0.0
2018-Apr-09 05:25N 43°34' W 005°41'0 0.0
2018-Apr-09 04:50N 43°34' W 005°41'0 0.0
2018-Apr-09 04:26N 43°34' W 005°41'0 0.0
2018-Apr-09 03:55N 43°34' W 005°41'0 0.0
2018-Apr-09 03:26N 43°34' W 005°41'0 0.0
2018-Apr-09 02:55N 43°34' W 005°41'0 0.0
2018-Apr-09 02:26N 43°34' W 005°41'0 0.0
2018-Apr-09 01:55N 43°34' W 005°41'0 0.0
2018-Apr-09 01:26N 43°34' W 005°41'0 0.0
2018-Apr-09 00:56N 43°34' W 005°41'0 0.0
2018-Apr-09 00:25N 43°34' W 005°41'0 0.0
2018-Apr-08 23:56N 43°34' W 005°41'0 0.0
2018-Apr-08 20:25N 43°34' W 005°41'0 0.0
2018-Apr-08 19:43N 43°34' W 005°41'0 0.0
2018-Apr-08 19:19N 43°34' W 005°41'0 0.0
2018-Apr-08 18:37N 43°34' W 005°41'0 0.0
2018-Apr-08 18:25N 43°34' W 005°41'0 0.6
2018-Apr-08 17:58N 43°34' W 005°41'2 4.6
2018-Apr-08 17:28N 43°36' W 005°40'1 0.2
2018-Apr-08 13:36N 43°36' W 005°39'0 0.1
2018-Apr-08 13:30N 43°36' W 005°39'0 0.0
2018-Apr-08 12:54N 43°36' W 005°39'0 0.0
2018-Apr-08 12:30N 43°36' W 005°39'0 0.0
2018-Apr-08 12:00N 43°36' W 005°39'0 0.1
2018-Apr-08 09:00N 43°36' W 005°38'0 0.0
2018-Apr-08 08:30N 43°36' W 005°38'0 0.0
2018-Apr-08 08:00N 43°36' W 005°38'0 0.0
2018-Apr-08 03:30N 43°36' W 005°39'0 0.0
2018-Apr-08 03:00N 43°36' W 005°39'0 0.0
2018-Apr-08 02:24N 43°36' W 005°39'0 0.0
2018-Apr-08 00:18N 43°36' W 005°38'0 0.0
2018-Apr-08 00:00N 43°36' W 005°38'0 0.0
2018-Apr-07 19:00N 43°36' W 005°39'0 0.0
2018-Apr-07 18:18N 43°36' W 005°39'0 0.0
2018-Apr-07 18:00N 43°36' W 005°39'0 0.0
2018-Apr-07 17:30N 43°36' W 005°39'0 0.0
2018-Apr-07 13:24N 43°36' W 005°39'0 0.0
2018-Apr-07 13:00N 43°36' W 005°39'0 0.0
2018-Apr-07 12:06N 43°36' W 005°39'0 0.0
2018-Apr-07 11:54N 43°36' W 005°39'0 0.0
2018-Apr-07 11:18N 43°36' W 005°39'0 0.0
2018-Apr-07 10:42N 43°36' W 005°39'0 0.1
2018-Apr-07 10:12N 43°36' W 005°39'0 0.1
2018-Apr-07 10:00N 43°36' W 005°39'0 0.0
2018-Apr-07 09:30N 43°36' W 005°39'0 0.0
2018-Apr-07 05:42N 43°36' W 005°38'0 0.0
2018-Apr-07 05:18N 43°36' W 005°38'0 0.1
2018-Apr-07 05:00N 43°36' W 005°38'0 0.0
2018-Apr-07 04:24N 43°36' W 005°38'0 0.0
2018-Apr-07 04:00N 43°36' W 005°38'0 0.0
2018-Apr-07 03:30N 43°36' W 005°38'0 0.0
2018-Apr-07 03:00N 43°36' W 005°38'0 0.0
2018-Apr-07 02:30N 43°36' W 005°38'0 0.0
2018-Apr-06 12:48N 43°36' W 005°39'0 0.0
2018-Apr-06 12:30N 43°36' W 005°39'0 0.0
2018-Apr-06 12:00N 43°36' W 005°39'0 0.0
2018-Apr-06 09:59N 43°36' W 005°39'0 0.0
2018-Apr-06 09:12N 43°36' W 005°39'0 0.1
2018-Apr-06 09:00N 43°36' W 005°39'0 0.0
2018-Apr-06 08:23N 43°36' W 005°39'0 0.0
2018-Apr-06 07:53N 43°36' W 005°39'0 0.0
2018-Apr-06 07:29N 43°36' W 005°39'0 0.0
2018-Apr-06 06:59N 43°36' W 005°39'0 0.0
2018-Apr-06 05:41N 43°36' W 005°39'0 0.0
2018-Apr-06 05:17N 43°36' W 005°39'0 0.0
2018-Apr-06 04:59N 43°36' W 005°39'0 0.0
2018-Apr-06 02:53N 43°36' W 005°39'0 0.0
2018-Apr-06 02:29N 43°36' W 005°39'0 0.0
2018-Apr-06 01:59N 43°36' W 005°39'0 0.1
2018-Apr-06 01:11N 43°36' W 005°39'0 0.1
2018-Apr-06 00:59N 43°36' W 005°39'0 0.0
2018-Apr-05 18:59N 43°36' W 005°39'0 0.0
2018-Apr-05 18:23N 43°36' W 005°39'0 0.0
2018-Apr-05 17:59N 43°36' W 005°39'0 0.1
2018-Apr-05 17:23N 43°36' W 005°39'0 0.0
2018-Apr-05 16:47N 43°36' W 005°39'0 0.0
2018-Apr-05 16:29N 43°36' W 005°39'0 0.0
2018-Apr-05 12:35N 43°36' W 005°39'0 0.1
2018-Apr-05 12:29N 43°36' W 005°39'0 0.1
2018-Apr-05 11:59N 43°36' W 005°39'0 0.0
2018-Apr-05 11:29N 43°36' W 005°39'  
Track history (hours):
 
Tides and Currents Weather Stations Pressure Air Temp Water Temp Dewpoint Dewpoint Depression Visibility Wind Speed Wind Dir Waves Ship Positions

Am Buchanan

Last reported at 2018-Apr-15 11:21 UTC. Time now 2018-Jun-18 13:44 UTC.
Position N 38°09' W 010°16'.
Warning: this ship's position is months out of date.

Length 229 m; draft 9.2 m.

Type: Cargo ship. MMSI: 538005066.

Date/timePositionNaut miles runAvg speedWind from/ knotsBaromVisibWave heightAir tempDewpointWater temp
2018-Apr-15 11:21N 38°09' W 010°16'512.3
2018-Apr-15 10:59N 38°11' W 010°11'812.5
2018-Apr-15 10:21N 38°17' W 010°04'412.4
2018-Apr-15 10:00N 38°19' W 009°60'612.2
2018-Apr-15 09:30N 38°21' W 009°52'612.2
2018-Apr-15 09:00N 38°23' W 009°45'612.5
2018-Apr-15 08:30N 38°27' W 009°39'612.3
2018-Apr-15 08:00N 38°31' W 009°33'612.2
2018-Apr-15 07:30N 38°35' W 009°27'510.5
2018-Apr-15 07:00N 38°40' W 009°24'3 6.1
2018-Apr-15 06:30N 38°37' W 009°24'714.0
2018-Apr-15 06:00N 38°41' W 009°17'4 8.7
2018-Apr-15 05:30N 38°41' W 009°11'0 0.2
2018-Apr-15 05:00N 38°41' W 009°11'0 0.1
2018-Apr-15 04:30N 38°41' W 009°11'0 0.1
2018-Apr-15 03:51N 38°41' W 009°11'0 0.6
2018-Apr-15 03:24N 38°41' W 009°11'0 0.2
2018-Apr-15 03:00N 38°41' W 009°11'0 0.0
2018-Apr-15 02:30N 38°41' W 009°11'0 0.1
2018-Apr-15 01:54N 38°41' W 009°11'0 0.0
2018-Apr-15 01:27N 38°41' W 009°11'0 0.1
2018-Apr-15 00:54N 38°41' W 009°11'0 0.0
2018-Apr-15 00:30N 38°41' W 009°11'0 0.1
2018-Apr-14 23:48N 38°41' W 009°11'0 0.2
2018-Apr-14 23:21N 38°41' W 009°11'0 0.0
2018-Apr-14 22:54N 38°41' W 009°11'0 0.1
2018-Apr-14 22:21N 38°41' W 009°11'0 0.5
2018-Apr-14 22:00N 38°41' W 009°11'0 0.1
2018-Apr-14 21:30N 38°41' W 009°11'0 0.0
2018-Apr-14 20:54N 38°41' W 009°11'0 0.2
2018-Apr-14 20:30N 38°41' W 009°11'0 0.1
2018-Apr-14 19:51N 38°41' W 009°11'0 0.2
2018-Apr-14 19:30N 38°41' W 009°11'3 6.4
2018-Apr-14 19:00N 38°41' W 009°15'4 8.8
2018-Apr-14 18:30N 38°39' W 009°20'4 7.5
2018-Apr-14 18:00N 38°39' W 009°25'2 4.3
2018-Apr-14 17:30N 38°38' W 009°28'4 8.0
2018-Apr-14 17:00N 38°35' W 009°32'4 8.5
2018-Apr-14 16:30N 38°33' W 009°36'4 8.5
2018-Apr-14 16:00N 38°31' W 009°41'4 8.8
2018-Apr-14 15:31N 38°30' W 009°46'4 8.2
2018-Apr-14 15:00N 38°29' W 009°51'4 8.1
2018-Apr-14 14:30N 38°31' W 009°56'4 7.9
2018-Apr-14 14:00N 38°32' W 010°01'2 4.9
2018-Apr-14 13:30N 38°34' W 010°03'5 9.7
2018-Apr-14 12:57N 38°39' W 010°04'511.3
2018-Apr-14 12:30N 38°44' W 010°05'611.2
2018-Apr-14 11:58N 38°51' W 010°06'510.8
2018-Apr-14 11:30N 38°55' W 010°06'611.7
2018-Apr-14 11:00N 39°01' W 010°07'612.0
2018-Apr-14 10:30N 39°07' W 010°08'611.4
2018-Apr-14 10:00N 39°13' W 010°08'337 8.4
2018-Apr-12 17:57N 43°43' W 005°40'611.3
2018-Apr-12 17:27N 43°37' W 005°38'4 8.8
2018-Apr-12 17:00N 43°34' W 005°40'1 0.1
2018-Apr-12 10:32N 43°34' W 005°41'0 0.0
2018-Apr-12 10:20N 43°34' W 005°41'0 0.0
2018-Apr-12 08:38N 43°34' W 005°41'0 0.0
2018-Apr-12 07:44N 43°34' W 005°41'0 0.0
2018-Apr-12 07:20N 43°34' W 005°41'0 0.0
2018-Apr-12 06:50N 43°34' W 005°41'0 0.0
2018-Apr-12 06:26N 43°34' W 005°41'0 0.0
2018-Apr-12 05:56N 43°34' W 005°41'0 0.0
2018-Apr-12 05:26N 43°34' W 005°41'0 0.0
2018-Apr-12 04:56N 43°34' W 005°41'0 0.0
2018-Apr-12 04:26N 43°34' W 005°41'0 0.0
2018-Apr-12 03:56N 43°34' W 005°41'0 0.0
2018-Apr-12 03:26N 43°34' W 005°41'0 0.0
2018-Apr-12 02:56N 43°34' W 005°41'0 0.0
2018-Apr-12 02:26N 43°34' W 005°41'0 0.0
2018-Apr-12 01:56N 43°34' W 005°41'0 0.0
2018-Apr-12 01:26N 43°34' W 005°41'0 0.0
2018-Apr-12 00:56N 43°34' W 005°41'0 0.0
2018-Apr-12 00:26N 43°34' W 005°41'0 0.0
2018-Apr-11 23:56N 43°34' W 005°41'0 0.0
2018-Apr-11 23:26N 43°34' W 005°41'0 0.0
2018-Apr-11 22:50N 43°34' W 005°41'0 0.0
2018-Apr-11 22:26N 43°34' W 005°41'0 0.0
2018-Apr-11 21:38N 43°34' W 005°41'0 0.0
2018-Apr-11 21:26N 43°34' W 005°41'0 0.0
2018-Apr-11 19:50N 43°34' W 005°41'0 0.0
2018-Apr-11 19:26N 43°34' W 005°41'0 0.0
2018-Apr-11 18:44N 43°34' W 005°41'0 0.0
2018-Apr-11 18:26N 43°34' W 005°41'0 0.0
2018-Apr-11 17:50N 43°34' W 005°41'0 0.0
2018-Apr-11 17:26N 43°34' W 005°41'0 0.0
2018-Apr-11 16:56N 43°34' W 005°41'0 0.0
2018-Apr-11 16:26N 43°34' W 005°41'0 0.0
2018-Apr-11 15:56N 43°34' W 005°41'0 0.0
2018-Apr-11 14:44N 43°34' W 005°41'0 0.0
2018-Apr-11 14:20N 43°34' W 005°41'0 0.0
2018-Apr-11 12:20N 43°34' W 005°41'0 0.0
2018-Apr-11 11:56N 43°34' W 005°41'0 0.0
2018-Apr-11 11:26N 43°34' W 005°41'0 0.0
2018-Apr-11 10:56N 43°34' W 005°41'0 0.0
2018-Apr-11 10:26N 43°34' W 005°41'0 0.0
2018-Apr-11 09:50N 43°34' W 005°41'0 0.0
2018-Apr-11 09:14N 43°34' W 005°41'0 0.0
2018-Apr-11 08:50N 43°34' W 005°41'0 0.0
2018-Apr-11 08:20N 43°34' W 005°41'0 0.0
2018-Apr-11 07:56N 43°34' W 005°41'0 0.0
2018-Apr-11 07:20N 43°34' W 005°41'0 0.0
2018-Apr-11 06:44N 43°34' W 005°41'0 0.0
2018-Apr-11 06:26N 43°34' W 005°41'0 0.0
2018-Apr-11 05:56N 43°34' W 005°41'0 0.0
2018-Apr-11 05:20N 43°34' W 005°41'0 0.0
2018-Apr-11 04:50N 43°34' W 005°41'0 0.0
2018-Apr-11 04:26N 43°34' W 005°41'0 0.0
2018-Apr-11 03:56N 43°34' W 005°41'0 0.0
2018-Apr-11 03:20N 43°34' W 005°41'0 0.0
2018-Apr-11 02:50N 43°34' W 005°41'0 0.0
2018-Apr-11 02:26N 43°34' W 005°41'0 0.0
2018-Apr-11 01:56N 43°34' W 005°41'0 0.0
2018-Apr-11 01:26N 43°34' W 005°41'0 0.0
2018-Apr-11 00:56N 43°34' W 005°41'0 0.0
2018-Apr-11 00:26N 43°34' W 005°41'0 0.0
2018-Apr-10 17:26N 43°34' W 005°41'0 0.0
2018-Apr-10 16:56N 43°34' W 005°41'0 0.0
2018-Apr-10 12:44N 43°34' W 005°41'0 0.0
2018-Apr-10 07:38N 43°34' W 005°41'0 0.0
2018-Apr-10 07:20N 43°34' W 005°41'0 0.0
2018-Apr-10 06:56N 43°34' W 005°41'0 0.0
2018-Apr-10 06:26N 43°34' W 005°41'0 0.0
2018-Apr-10 05:56N 43°34' W 005°41'0 0.0
2018-Apr-10 05:20N 43°34' W 005°41'0 0.0
2018-Apr-10 04:56N 43°34' W 005°41'0 0.0
2018-Apr-10 04:26N 43°34' W 005°41'0 0.0
2018-Apr-10 03:44N 43°34' W 005°41'0 0.0
2018-Apr-10 03:26N 43°34' W 005°41'0 0.0
2018-Apr-10 02:50N 43°34' W 005°41'0 0.0
2018-Apr-10 02:26N 43°34' W 005°41'0 0.0
2018-Apr-10 01:56N 43°34' W 005°41'0 0.0
2018-Apr-10 01:26N 43°34' W 005°41'0 0.0
2018-Apr-10 00:56N 43°34' W 005°41'0 0.0
2018-Apr-10 00:26N 43°34' W 005°41'0 0.0
2018-Apr-09 23:56N 43°34' W 005°41'0 0.0
2018-Apr-09 19:20N 43°34' W 005°41'0 0.0
2018-Apr-09 18:56N 43°34' W 005°41'0 0.0
2018-Apr-09 18:26N 43°34' W 005°41'0 0.0
2018-Apr-09 17:56N 43°34' W 005°41'0 0.0
2018-Apr-09 17:20N 43°34' W 005°41'0 0.0
2018-Apr-09 16:56N 43°34' W 005°41'0 0.0
2018-Apr-09 13:02N 43°34' W 005°41'0 0.0
2018-Apr-09 12:50N 43°34' W 005°41'0 0.0
2018-Apr-09 12:14N 43°34' W 005°41'0 0.0
2018-Apr-09 11:55N 43°34' W 005°41'0 0.0
2018-Apr-09 11:20N 43°34' W 005°41'0 0.0
2018-Apr-09 10:50N 43°34' W 005°41'0 0.0
2018-Apr-09 10:14N 43°34' W 005°41'0 0.0
2018-Apr-09 09:56N 43°34' W 005°41'0 0.0
2018-Apr-09 09:20N 43°34' W 005°41'0 0.0
2018-Apr-09 08:56N 43°34' W 005°41'0 0.0
2018-Apr-09 08:01N 43°34' W 005°41'0 0.0
2018-Apr-09 06:50N 43°34' W 005°41'0 0.0
2018-Apr-09 06:25N 43°34' W 005°41'0 0.0
2018-Apr-09 05:55N 43°34' W 005°41'0 0.0
2018-Apr-09 05:25N 43°34' W 005°41'0 0.0
2018-Apr-09 04:50N 43°34' W 005°41'0 0.0
2018-Apr-09 04:26N 43°34' W 005°41'0 0.0
2018-Apr-09 03:55N 43°34' W 005°41'0 0.0
2018-Apr-09 03:26N 43°34' W 005°41'0 0.0
2018-Apr-09 02:55N 43°34' W 005°41'0 0.0
2018-Apr-09 02:26N 43°34' W 005°41'0 0.0
2018-Apr-09 01:55N 43°34' W 005°41'0 0.0
2018-Apr-09 01:26N 43°34' W 005°41'0 0.0
2018-Apr-09 00:56N 43°34' W 005°41'0 0.0
2018-Apr-09 00:25N 43°34' W 005°41'0 0.0
2018-Apr-08 23:56N 43°34' W 005°41'0 0.0
2018-Apr-08 20:25N 43°34' W 005°41'0 0.0
2018-Apr-08 19:43N 43°34' W 005°41'0 0.0
2018-Apr-08 19:19N 43°34' W 005°41'0 0.0
2018-Apr-08 18:37N 43°34' W 005°41'0 0.0
2018-Apr-08 18:25N 43°34' W 005°41'0 0.6
2018-Apr-08 17:58N 43°34' W 005°41'2 4.6
2018-Apr-08 17:28N 43°36' W 005°40'1 0.2
2018-Apr-08 13:36N 43°36' W 005°39'0 0.1
2018-Apr-08 13:30N 43°36' W 005°39'0 0.0
2018-Apr-08 12:54N 43°36' W 005°39'0 0.0
2018-Apr-08 12:30N 43°36' W 005°39'0 0.0
2018-Apr-08 12:00N 43°36' W 005°39'0 0.1
2018-Apr-08 09:00N 43°36' W 005°38'0 0.0
2018-Apr-08 08:30N 43°36' W 005°38'0 0.0
2018-Apr-08 08:00N 43°36' W 005°38'0 0.0
2018-Apr-08 03:30N 43°36' W 005°39'0 0.0
2018-Apr-08 03:00N 43°36' W 005°39'0 0.0
2018-Apr-08 02:24N 43°36' W 005°39'0 0.0
2018-Apr-08 00:18N 43°36' W 005°38'0 0.0
2018-Apr-08 00:00N 43°36' W 005°38'0 0.0
2018-Apr-07 19:00N 43°36' W 005°39'0 0.0
2018-Apr-07 18:18N 43°36' W 005°39'0 0.0
2018-Apr-07 18:00N 43°36' W 005°39'0 0.0
2018-Apr-07 17:30N 43°36' W 005°39'0 0.0
2018-Apr-07 13:24N 43°36' W 005°39'0 0.0
2018-Apr-07 13:00N 43°36' W 005°39'0 0.0
2018-Apr-07 12:06N 43°36' W 005°39'0 0.0
2018-Apr-07 11:54N 43°36' W 005°39'0 0.0
2018-Apr-07 11:18N 43°36' W 005°39'0 0.0
2018-Apr-07 10:42N 43°36' W 005°39'0 0.1
2018-Apr-07 10:12N 43°36' W 005°39'0 0.1
2018-Apr-07 10:00N 43°36' W 005°39'0 0.0
2018-Apr-07 09:30N 43°36' W 005°39'0 0.0
2018-Apr-07 05:42N 43°36' W 005°38'0 0.0
2018-Apr-07 05:18N 43°36' W 005°38'0 0.1
2018-Apr-07 05:00N 43°36' W 005°38'0 0.0
2018-Apr-07 04:24N 43°36' W 005°38'0 0.0
2018-Apr-07 04:00N 43°36' W 005°38'0 0.0
2018-Apr-07 03:30N 43°36' W 005°38'0 0.0
2018-Apr-07 03:00N 43°36' W 005°38'0 0.0
2018-Apr-07 02:30N 43°36' W 005°38'0 0.0
2018-Apr-06 12:48N 43°36' W 005°39'0 0.0
2018-Apr-06 12:30N 43°36' W 005°39'0 0.0
2018-Apr-06 12:00N 43°36' W 005°39'0 0.0
2018-Apr-06 09:59N 43°36' W 005°39'0 0.0
2018-Apr-06 09:12N 43°36' W 005°39'0 0.1
2018-Apr-06 09:00N 43°36' W 005°39'0 0.0
2018-Apr-06 08:23N 43°36' W 005°39'0 0.0
2018-Apr-06 07:53N 43°36' W 005°39'0 0.0
2018-Apr-06 07:29N 43°36' W 005°39'0 0.0
2018-Apr-06 06:59N 43°36' W 005°39'0 0.0
2018-Apr-06 05:41N 43°36' W 005°39'0 0.0
2018-Apr-06 05:17N 43°36' W 005°39'0 0.0
2018-Apr-06 04:59N 43°36' W 005°39'0 0.0
2018-Apr-06 02:53N 43°36' W 005°39'0 0.0
2018-Apr-06 02:29N 43°36' W 005°39'0 0.0
2018-Apr-06 01:59N 43°36' W 005°39'0 0.1
2018-Apr-06 01:11N 43°36' W 005°39'0 0.1
2018-Apr-06 00:59N 43°36' W 005°39'0 0.0
2018-Apr-05 18:59N 43°36' W 005°39'0 0.0
2018-Apr-05 18:23N 43°36' W 005°39'0 0.0
2018-Apr-05 17:59N 43°36' W 005°39'0 0.1
2018-Apr-05 17:23N 43°36' W 005°39'0 0.0
2018-Apr-05 16:47N 43°36' W 005°39'0 0.0
2018-Apr-05 16:29N 43°36' W 005°39'0 0.0
2018-Apr-05 12:35N 43°36' W 005°39'0 0.1
2018-Apr-05 12:29N 43°36' W 005°39'0 0.1
2018-Apr-05 11:59N 43°36' W 005°39'0 0.0
2018-Apr-05 11:29N 43°36' W 005°39'  

Dump ship's entire track history